Time;durP1;ratioP1;P1;durP2;ratioP2;P2;SDS_P1;SDS_P2;PMS_P1;PMS_P2;Temp;Humidity;BMP_temperature;BMP_pressure;BME280_temperature;BME280_humidity;BME280_pressure;Samples;Min_cycle;Max_cycle;Signal;HPM_P1;HPM_P2
2021/07/10 00:01:05;;;;;;;;;;;;;;;27.08;45.86;100130.38;3525101;28;20389;-71
2021/07/10 00:02:45;;;;;;;;;;;;;;;27.06;45.77;100127.13;3524777;28;20046;-72
2021/07/10 00:04:29;;;;;;;;;;;;;;;27.05;46.02;100114.53;3525052;28;19930;-72
2021/07/10 00:06:10;;;;;;;;;;;;;;;27.03;45.68;100123.06;3524905;28;19924;-72
2021/07/10 00:07:50;;;;;;;;;;;;;;;27.03;46.02;100124.97;3525498;28;20275;-74
2021/07/10 00:09:32;;;;;;;;;;;;;;;27.01;45.92;100127.19;3510069;28;20331;-73
2021/07/10 00:11:13;;;;;;;;;;;;;;;27.00;46.27;100126.34;3507372;28;19924;-72
2021/07/10 00:12:53;;;;;;;;;;;;;;;26.99;45.85;100127.47;3506706;28;19924;-72
2021/07/10 00:14:34;;;;;;;;;;;;;;;26.96;46.07;100117.13;3522114;28;19976;-73
2021/07/10 00:16:14;;;;;;;;;;;;;;;26.94;46.40;100117.41;3510632;28;19924;-73
2021/07/10 00:17:55;;;;;;;;;;;;;;;26.93;46.45;100126.72;3521544;28;19930;-73
2021/07/10 00:19:35;;;;;;;;;;;;;;;26.91;46.48;100120.72;3525146;28;19924;-71
2021/07/10 00:21:16;;;;;;;;;;;;;;;26.89;46.16;100122.94;3525426;28;20398;-72
2021/07/10 00:22:56;;;;;;;;;;;;;;;26.88;46.28;100120.50;3524940;28;20412;-72
2021/07/10 00:24:37;;;;;;;;;;;;;;;26.85;46.50;100126.53;3525346;28;19937;-73
2021/07/10 00:26:17;;;;;;;;;;;;;;;26.83;46.72;100123.31;3525236;28;19923;-72
2021/07/10 00:27:58;;;;;;;;;;;;;;;26.79;46.80;100123.06;3525157;28;19945;-72
2021/07/10 00:29:38;;;;;;;;;;;;;;;26.76;46.49;100123.66;3524868;28;19951;-73
2021/07/10 00:31:19;;;;;;;;;;;;;;;26.73;46.83;100127.78;3527666;28;19930;-72
2021/07/10 00:33:02;;;;;;;;;;;;;;;26.70;46.99;100124.84;3524459;28;19931;-75
2021/07/10 00:34:42;;;;;;;;;;;;;;;26.67;47.04;100128.97;3524797;28;19946;-77
2021/07/10 00:36:23;;;;;;;;;;;;;;;26.66;46.92;100118.31;3524774;28;19923;-76
2021/07/10 00:38:03;;;;;;;;;;;;;;;26.62;46.87;100122.75;3510134;28;19928;-77
2021/07/10 00:39:44;;;;;;;;;;;;;;;26.61;46.77;100121.09;3521646;28;20022;-77
2021/07/10 00:41:24;;;;;;;;;;;;;;;26.57;46.98;100120.88;3496276;28;20442;-80
2021/07/10 00:43:05;;;;;;;;;;;;;;;26.54;47.13;100116.81;3507020;28;19946;-77
2021/07/10 00:44:45;;;;;;;;;;;;;;;26.52;47.02;100124.47;3509709;28;19939;-78
2021/07/10 00:46:26;;;;;;;;;;;;;;;26.49;47.13;100125.03;3526201;28;19969;-79
2021/07/10 00:48:07;;;;;;;;;;;;;;;26.48;47.31;100128.84;3517731;28;19928;-76
2021/07/10 00:49:47;;;;;;;;;;;;;;;26.46;47.20;100128.34;3521962;28;19923;-77
2021/07/10 00:51:28;;;;;;;;;;;;;;;26.45;47.24;100128.63;3525191;28;19930;-77
2021/07/10 00:53:08;;;;;;;;;;;;;;;26.43;47.34;100120.69;3524755;28;20026;-80
2021/07/10 00:54:49;;;;;;;;;;;;;;;26.43;47.49;100122.63;3525042;28;19930;-79
2021/07/10 00:56:29;;;;;;;;;;;;;;;26.41;47.19;100125.66;3532739;28;20066;-79
2021/07/10 00:58:10;;;;;;;;;;;;;;;26.39;47.27;100127.88;3539092;28;20298;-79
2021/07/10 00:59:51;;;;;;;;;;;;;;;26.39;47.56;100132.53;3538830;28;20048;-78
2021/07/10 01:01:31;;;;;;;;;;;;;;;26.38;47.72;100130.88;3523597;28;20366;-76
2021/07/10 01:03:14;;;;;;;;;;;;;;;26.36;47.60;100131.19;3535273;28;19923;-78
2021/07/10 01:04:54;;;;;;;;;;;;;;;26.32;47.52;100130.13;3535346;28;20313;-76
2021/07/10 01:06:35;;;;;;;;;;;;;;;26.29;47.59;100133.44;3532337;28;19923;-78
2021/07/10 01:08:15;;;;;;;;;;;;;;;26.27;47.89;100139.19;3530092;28;20022;-79
2021/07/10 01:09:56;;;;;;;;;;;;;;;26.28;47.65;100137.25;3538640;28;20389;-77
2021/07/10 01:11:36;;;;;;;;;;;;;;;26.27;47.64;100141.91;3539250;28;19955;-76
2021/07/10 01:13:17;;;;;;;;;;;;;;;26.27;47.71;100132.91;3517540;28;19946;-78
2021/07/10 01:14:58;;;;;;;;;;;;;;;26.27;47.81;100138.38;3522098;28;20010;-77
2021/07/10 01:16:39;;;;;;;;;;;;;;;26.25;48.00;100135.09;3524802;28;19924;-77
2021/07/10 01:18:19;;;;;;;;;;;;;;;26.24;47.89;100138.94;3524004;28;19923;-78
2021/07/10 01:20:00;;;;;;;;;;;;;;;26.22;47.85;100136.50;3509911;28;19927;-77
2021/07/10 01:21:41;;;;;;;;;;;;;;;26.22;47.83;100135.69;3521519;28;19924;-78
2021/07/10 01:23:22;;;;;;;;;;;;;;;26.20;47.92;100137.88;3530973;28;20381;-78
2021/07/10 01:25:03;;;;;;;;;;;;;;;26.18;47.91;100138.19;3524466;28;19924;-78
2021/07/10 01:26:43;;;;;;;;;;;;;;;26.17;48.29;100139.28;3536427;28;20359;-78
2021/07/10 01:28:24;;;;;;;;;;;;;;;26.17;48.20;100143.94;3538554;28;19924;-78
2021/07/10 01:30:05;;;;;;;;;;;;;;;26.14;48.11;100145.31;3538659;28;20398;-79
2021/07/10 01:31:46;;;;;;;;;;;;;;;26.14;48.25;100133.56;3538716;28;19923;-78
2021/07/10 01:33:26;;;;;;;;;;;;;;;26.13;48.59;100131.97;3537559;28;20682;-78
2021/07/10 01:35:07;;;;;;;;;;;;;;;26.13;48.61;100126.50;3523874;28;19924;-78
2021/07/10 01:36:48;;;;;;;;;;;;;;;26.11;48.49;100134.97;3536327;28;20382;-78
2021/07/10 01:38:29;;;;;;;;;;;;;;;26.11;48.67;100140.44;3524497;28;19967;-77
2021/07/10 01:40:10;;;;;;;;;;;;;;;26.10;48.51;100136.88;3524383;28;20447;-79
2021/07/10 01:41:53;;;;;;;;;;;;;;;26.11;48.19;100134.97;3509741;28;20022;-77
2021/07/10 01:43:34;;;;;;;;;;;;;;;26.11;48.65;100134.97;3524355;27;19930;-77
2021/07/10 01:45:17;;;;;;;;;;;;;;;26.13;48.60;100131.97;3512145;28;19927;-77
2021/07/10 01:46:57;;;;;;;;;;;;;;;26.11;48.28;100127.56;3524726;28;19931;-77
2021/07/10 01:48:38;;;;;;;;;;;;;;;26.11;48.80;100145.91;3526771;28;20424;-77
2021/07/10 01:50:19;;;;;;;;;;;;;;;26.11;48.59;100133.03;3512067;28;19924;-78
2021/07/10 01:51:59;;;;;;;;;;;;;;;26.12;48.58;100131.13;3524256;28;20024;-77
2021/07/10 01:53:40;;;;;;;;;;;;;;;26.13;48.63;100140.16;3527742;27;20386;-77
2021/07/10 01:55:20;;;;;;;;;;;;;;;26.15;48.66;100135.19;3527143;28;19923;-77
2021/07/10 01:57:01;;;;;;;;;;;;;;;26.15;48.51;100141.50;3526414;28;20377;-78
2021/07/10 01:58:41;;;;;;;;;;;;;;;26.15;48.48;100144.22;3511162;28;20695;-78
2021/07/10 02:00:23;;;;;;;;;;;;;;;26.16;48.48;100134.09;3524051;28;19924;-79
2021/07/10 02:02:04;;;;;;;;;;;;;;;26.16;48.68;100136.84;3526962;28;19924;-79
2021/07/10 02:03:44;;;;;;;;;;;;;;;26.17;48.56;100136.53;3516386;28;20414;-78
2021/07/10 02:05:26;;;;;;;;;;;;;;;26.18;48.56;100135.44;3538196;27;19924;-79
2021/07/10 02:07:06;;;;;;;;;;;;;;;26.20;48.70;100137.88;3538958;27;19923;-78
2021/07/10 02:08:47;;;;;;;;;;;;;;;26.21;48.49;100134.06;3526328;28;19924;-79
2021/07/10 02:10:28;;;;;;;;;;;;;;;26.22;48.61;100135.69;3526632;28;19924;-78
2021/07/10 02:12:10;;;;;;;;;;;;;;;26.23;48.66;100137.28;3526649;27;20441;-77
2021/07/10 02:13:51;;;;;;;;;;;;;;;26.24;48.48;100133.47;3511707;28;20402;-78
2021/07/10 02:15:32;;;;;;;;;;;;;;;26.24;48.80;100134.28;3523791;28;19923;-79
2021/07/10 02:17:12;;;;;;;;;;;;;;;26.25;48.50;100135.91;3526756;28;19924;-79
2021/07/10 02:18:53;;;;;;;;;;;;;;;26.25;48.75;100129.63;3526067;28;19923;-81
2021/07/10 02:20:34;;;;;;;;;;;;;;;26.24;48.85;100139.75;3526620;28;20390;-80
2021/07/10 02:22:16;;;;;;;;;;;;;;;26.23;48.90;100137.28;3511670;28;20405;-79
2021/07/10 02:23:56;;;;;;;;;;;;;;;26.23;48.54;100138.13;3523774;28;19923;-81
2021/07/10 02:25:37;;;;;;;;;;;;;;;26.22;48.75;100138.41;3512109;28;19924;-78
2021/07/10 02:27:19;;;;;;;;;;;;;;;26.22;49.04;100135.69;3523929;28;19944;-78
2021/07/10 02:28:59;;;;;;;;;;;;;;;26.22;48.91;100135.69;3526400;28;19924;-79
2021/07/10 02:30:40;;;;;;;;;;;;;;;26.22;49.06;100135.69;3526665;28;19949;-80
2021/07/10 02:32:20;;;;;;;;;;;;;;;26.22;48.84;100132.94;3529952;27;19976;-80
2021/07/10 02:34:02;;;;;;;;;;;;;;;26.22;48.95;100132.94;3540676;27;19930;-78
2021/07/10 02:35:43;;;;;;;;;;;;;;;26.23;48.75;100131.84;3541184;27;19923;-78
2021/07/10 02:37:24;;;;;;;;;;;;;;;26.22;49.10;100124.75;3535577;27;19923;-78
2021/07/10 02:39:05;;;;;;;;;;;;;;;26.22;49.03;100124.75;3526233;28;20436;-79
2021/07/10 02:40:45;;;;;;;;;;;;;;;26.22;48.75;100124.75;3526785;28;20028;-78
2021/07/10 02:42:26;;;;;;;;;;;;;;;26.20;49.00;100127.78;3526995;27;19923;-79
2021/07/10 02:44:06;;;;;;;;;;;;;;;26.20;49.21;100127.78;3526268;28;20394;-78
2021/07/10 02:45:47;;;;;;;;;;;;;;;26.19;49.14;100131.59;3526202;28;20378;-78
2021/07/10 02:47:28;;;;;;;;;;;;;;;26.17;49.12;100125.59;3526683;28;19938;-80
2021/07/10 02:49:08;;;;;;;;;;;;;;;26.16;49.13;100120.44;3526354;28;20291;-79
2021/07/10 02:50:49;;;;;;;;;;;;;;;26.16;49.30;100120.44;3526679;28;19923;-79
2021/07/10 02:52:29;;;;;;;;;;;;;;;26.16;49.27;100121.25;3529823;27;19923;-80
2021/07/10 02:54:10;;;;;;;;;;;;;;;26.17;49.10;100122.06;3540169;27;20401;-79
2021/07/10 02:55:50;;;;;;;;;;;;;;;26.18;49.20;100118.25;3525568;28;19946;-80
2021/07/10 02:57:31;;;;;;;;;;;;;;;26.19;49.22;100120.69;3535613;27;19931;-81
2021/07/10 02:59:11;;;;;;;;;;;;;;;26.20;49.30;100121.47;3534296;27;19927;-80
2021/07/10 03:00:52;;;;;;;;;;;;;;;26.20;49.22;100113.28;3513769;28;19970;-80
2021/07/10 03:02:32;;;;;;;;;;;;;;;26.19;49.23;100114.41;3527998;27;20072;-80
2021/07/10 03:04:13;;;;;;;;;;;;;;;26.18;49.26;100110.88;3531459;27;20427;-78
2021/07/10 03:05:54;;;;;;;;;;;;;;;26.19;49.45;100117.94;3532808;27;20313;-78
2021/07/10 03:07:35;;;;;;;;;;;;;;;26.19;49.30;100117.13;3533002;27;19919;-77
2021/07/10 03:09:15;;;;;;;;;;;;;;;26.20;49.56;100122.31;3528799;27;19931;-77
2021/07/10 03:10:56;;;;;;;;;;;;;;;26.21;49.39;100115.75;3537812;27;19976;-78
2021/07/10 03:12:36;;;;;;;;;;;;;;;26.22;49.33;100116.56;3529801;27;19954;-78
2021/07/10 03:14:17;;;;;;;;;;;;;;;26.23;49.31;100110.81;3530640;27;20382;-77
2021/07/10 03:15:57;;;;;;;;;;;;;;;26.24;49.13;100106.97;3531413;27;19923;-78
2021/07/10 03:17:38;;;;;;;;;;;;;;;26.26;49.02;100110.22;3533532;27;19923;-77
2021/07/10 03:19:18;;;;;;;;;;;;;;;26.27;49.24;100109.13;3512703;28;19928;-76
2021/07/10 03:20:59;;;;;;;;;;;;;;;26.28;49.10;100112.66;3528138;27;19931;-78
2021/07/10 03:22:40;;;;;;;;;;;;;;;26.28;49.21;100109.91;3525388;28;19919;-78
2021/07/10 03:24:20;;;;;;;;;;;;;;;26.28;49.43;100108.03;3534370;27;19927;-78
2021/07/10 03:26:01;;;;;;;;;;;;;;;26.29;49.43;100114.31;3531033;27;19923;-77
2021/07/10 03:27:42;;;;;;;;;;;;;;;26.30;49.13;100110.47;3534864;27;19938;-76
2021/07/10 03:29:24;;;;;;;;;;;;;;;26.32;49.25;100105.53;3533264;27;19928;-78
2021/07/10 03:31:05;;;;;;;;;;;;;;;26.35;49.42;100107.66;3532388;27;20305;-77
2021/07/10 03:32:46;;;;;;;;;;;;;;;26.39;49.20;100107.94;3532581;27;20018;-77
2021/07/10 03:34:27;;;;;;;;;;;;;;;26.42;48.92;100108.16;3521280;28;19920;-78
2021/07/10 03:36:07;;;;;;;;;;;;;;;26.44;48.97;100111.41;3527338;27;19978;-78
2021/07/10 03:37:49;;;;;;;;;;;;;;;26.48;49.07;100104.25;3534001;27;20456;-77
2021/07/10 03:39:29;;;;;;;;;;;;;;;26.51;48.89;100100.13;3527534;27;20030;-76
2021/07/10 03:41:11;;;;;;;;;;;;;;;26.53;48.75;100108.88;3534147;27;19923;-78
2021/07/10 03:42:52;;;;;;;;;;;;;;;26.55;48.92;100101.19;3510066;28;20030;-77
2021/07/10 03:44:32;;;;;;;;;;;;;;;26.58;48.78;100102.53;3511827;28;20340;-79
2021/07/10 03:46:13;;;;;;;;;;;;;;;26.59;48.79;100101.44;3527390;27;19930;-78
2021/07/10 03:47:53;;;;;;;;;;;;;;;26.62;49.01;100106.34;3531973;27;20527;-78
2021/07/10 03:49:34;;;;;;;;;;;;;;;26.64;49.12;100101.38;3534042;27;19923;-78
2021/07/10 03:51:14;;;;;;;;;;;;;;;26.69;48.53;100102.16;3534747;27;19923;-78
2021/07/10 03:52:55;;;;;;;;;;;;;;;26.75;48.47;100105.63;3536653;27;19931;-78
2021/07/10 03:54:35;;;;;;;;;;;;;;;26.81;48.46;100107.19;3530127;27;20018;-78
2021/07/10 03:56:19;;;;;;;;;;;;;;;26.87;48.29;100107.94;3530117;27;20014;-78
2021/07/10 03:58:01;;;;;;;;;;;;;;;26.91;48.35;100107.06;3529942;27;20379;-79
2021/07/10 03:59:42;;;;;;;;;;;;;;;26.95;48.17;100099.91;3532352;27;20405;-78
2021/07/10 04:01:23;;;;;;;;;;;;;;;27.00;48.12;100101.72;3533044;27;19923;-79
2021/07/10 04:03:03;;;;;;;;;;;;;;;27.04;48.42;100099.25;3537425;27;19930;-79
2021/07/10 04:04:44;;;;;;;;;;;;;;;27.08;48.23;100097.53;3529987;27;19924;-78
2021/07/10 04:06:24;;;;;;;;;;;;;;;27.12;47.83;100104.84;3530113;27;19952;-77
2021/07/10 04:08:05;;;;;;;;;;;;;;;27.18;47.78;100100.16;3532549;27;19919;-78
2021/07/10 04:09:45;;;;;;;;;;;;;;;27.25;48.18;100103.34;3530591;27;19967;-77
2021/07/10 04:11:26;;;;;;;;;;;;;;;27.32;47.97;100098.31;3530000;27;19928;-78
2021/07/10 04:13:10;;;;;;;;;;;;;;;27.40;47.87;100097.66;3514449;28;19928;-79
2021/07/10 04:14:50;;;;;;;;;;;;;;;27.48;47.92;100092.63;3528148;27;19930;-77
2021/07/10 04:16:31;;;;;;;;;;;;;;;27.52;47.92;100096.38;3532787;27;20375;-78
2021/07/10 04:18:11;;;;;;;;;;;;;;;27.57;47.87;100088.06;3533998;27;19923;-79
2021/07/10 04:19:52;;;;;;;;;;;;;;;27.63;47.78;100092.38;3519676;28;19927;-77
2021/07/10 04:21:33;;;;;;;;;;;;;;;27.69;47.53;100095.84;3512466;28;19963;-79
2021/07/10 04:23:13;;;;;;;;;;;;;;;27.71;47.15;100088.97;3527479;28;20413;-78
2021/07/10 04:24:54;;;;;;;;;;;;;;;27.73;47.58;100097.69;3531667;28;19924;-77
2021/07/10 04:26:34;;;;;;;;;;;;;;;27.71;47.29;100093.63;3534870;27;20369;-80
2021/07/10 04:28:15;;;;;;;;;;;;;;;27.70;47.59;100092.81;3529955;27;19966;-80
2021/07/10 04:29:55;;;;;;;;;;;;;;;27.68;47.20;100089.56;3531116;28;20012;-79
2021/07/10 04:31:36;;;;;;;;;;;;;;;27.65;47.63;100087.41;3532241;28;19923;-79
2021/07/10 04:33:16;;;;;;;;;;;;;;;27.59;47.43;100099.56;3526053;28;19924;-78
2021/07/10 04:34:57;;;;;;;;;;;;;;;27.53;47.64;100087.06;3513002;28;20026;-78
2021/07/10 04:36:37;;;;;;;;;;;;;;;27.48;47.43;100093.44;3530467;28;19974;-79
2021/07/10 04:38:19;;;;;;;;;;;;;;;27.48;47.45;100089.88;3534533;28;19959;-78
2021/07/10 04:39:59;;;;;;;;;;;;;;;27.47;47.80;100083.59;3530491;28;19923;-79
2021/07/10 04:41:40;;;;;;;;;;;;;;;27.47;47.39;100089.06;3517118;28;19957;-80
2021/07/10 04:43:21;;;;;;;;;;;;;;;27.47;47.83;100088.22;3515954;28;20504;-79
2021/07/10 04:45:03;;;;;;;;;;;;;;;27.49;47.68;100086.03;3531844;28;20030;-79
2021/07/10 04:46:43;;;;;;;;;;;;;;;27.53;47.41;100087.06;3529887;28;19923;-78
2021/07/10 04:48:25;;;;;;;;;;;;;;;27.57;47.65;100085.34;3514913;28;20396;-78
2021/07/10 04:50:06;;;;;;;;;;;;;;;27.59;47.30;100091.34;3507975;28;19977;-77
2021/07/10 04:51:46;;;;;;;;;;;;;;;27.60;47.53;100084.75;3529336;28;19927;-77
2021/07/10 04:53:27;;;;;;;;;;;;;;;27.59;47.39;100088.59;3529840;28;19942;-77
2021/07/10 04:55:08;;;;;;;;;;;;;;;27.59;47.20;100074.91;3516054;28;19923;-79
2021/07/10 04:56:49;;;;;;;;;;;;;;;27.60;47.59;100084.75;3527560;28;20419;-78
2021/07/10 04:58:29;;;;;;;;;;;;;;;27.61;47.57;100078.97;3532309;28;19920;-78
2021/07/10 05:00:10;;;;;;;;;;;;;;;27.66;47.17;100080.81;3517296;28;19923;-79
2021/07/10 05:01:50;;;;;;;;;;;;;;;27.72;47.10;100076.88;3508182;28;19924;-78
2021/07/10 05:03:31;;;;;;;;;;;;;;;27.81;47.30;100082.53;3529615;28;19931;-77
2021/07/10 05:05:12;;;;;;;;;;;;;;;27.89;47.08;100084.56;3525752;28;20398;-80
2021/07/10 05:06:52;;;;;;;;;;;;;;;27.97;47.11;100080.34;3531453;28;19923;-80
2021/07/10 05:08:33;;;;;;;;;;;;;;;28.03;47.13;100084.59;3529750;28;19923;-81
2021/07/10 05:10:13;;;;;;;;;;;;;;;28.09;46.88;100083.41;3529276;28;20003;-77
2021/07/10 05:11:54;;;;;;;;;;;;;;;28.15;46.69;100076.72;3516025;28;19931;-78
2021/07/10 05:13:34;;;;;;;;;;;;;;;28.24;46.75;100074.06;3509650;28;19928;-78
2021/07/10 05:15:17;;;;;;;;;;;;;;;28.33;46.65;100076.94;3525311;28;19924;-77
2021/07/10 05:16:57;;;;;;;;;;;;;;;28.42;46.37;100077.84;3531602;27;19923;-78
2021/07/10 05:18:38;;;;;;;;;;;;;;;28.50;46.25;100068.97;3529986;27;19927;-78
2021/07/10 05:20:19;;;;;;;;;;;;;;;28.56;46.22;100075.97;3534748;27;19930;-78
2021/07/10 05:21:59;;;;;;;;;;;;;;;28.62;45.88;100069.25;3534848;27;20389;-77
2021/07/10 05:23:41;;;;;;;;;;;;;;;28.70;45.93;100078.69;3533336;27;19984;-78
2021/07/10 05:25:21;;;;;;;;;;;;;;;28.76;45.94;100073.91;3532256;27;19949;-77
2021/07/10 05:27:02;;;;;;;;;;;;;;;28.83;45.82;100074.31;3516447;28;20022;-78
2021/07/10 05:28:43;;;;;;;;;;;;;;;28.91;45.99;100073.56;3531809;27;19931;-79
2021/07/10 05:30:23;;;;;;;;;;;;;;;28.99;46.01;100061.88;3530510;27;20464;-77
2021/07/10 05:32:04;;;;;;;;;;;;;;;29.08;45.53;100070.22;3531896;27;19931;-79
2021/07/10 05:33:45;;;;;;;;;;;;;;;29.16;45.48;100063.19;3519041;28;19963;-76
2021/07/10 05:35:27;;;;;;;;;;;;;;;29.21;45.67;100058.38;3531795;27;19967;-77
2021/07/10 05:37:07;;;;;;;;;;;;;;;29.29;45.34;100065.06;3534308;27;19959;-77
2021/07/10 05:38:48;;;;;;;;;;;;;;;29.37;45.37;100067.06;3533531;27;19931;-76
2021/07/10 05:40:28;;;;;;;;;;;;;;;29.45;45.33;100065.50;3530734;27;19923;-80
2021/07/10 05:42:09;;;;;;;;;;;;;;;29.51;45.50;100061.53;3531676;27;19923;-77
2021/07/10 05:43:50;;;;;;;;;;;;;;;29.53;45.14;100057.34;3534140;27;20006;-80
2021/07/10 05:45:30;;;;;;;;;;;;;;;29.52;44.90;100058.47;3534546;27;19970;-78
2021/07/10 05:47:11;;;;;;;;;;;;;;;29.53;45.01;100064.75;3534469;27;20308;-79
2021/07/10 05:48:51;;;;;;;;;;;;;;;29.54;45.26;100066.41;3527648;27;19924;-78
2021/07/10 05:50:32;;;;;;;;;;;;;;;29.55;45.24;100066.06;3532255;27;19930;-78
2021/07/10 05:52:12;;;;;;;;;;;;;;;29.60;45.29;100061.59;3531593;27;19966;-78
2021/07/10 05:53:53;;;;;;;;;;;;;;;29.63;45.05;100064.50;3533119;27;19977;-79
2021/07/10 05:55:34;;;;;;;;;;;;;;;29.69;44.96;100059.75;3534088;27;20293;-77
2021/07/10 05:57:14;;;;;;;;;;;;;;;29.75;44.88;100059.31;3519473;28;20287;-80
2021/07/10 05:58:55;;;;;;;;;;;;;;;29.85;44.77;100057.44;3530529;27;19924;-77
2021/07/10 06:00:35;;;;;;;;;;;;;;;29.96;44.66;100059.56;3528093;27;20371;-77
2021/07/10 06:02:16;;;;;;;;;;;;;;;30.09;44.69;100055.13;3512131;28;19924;-79
2021/07/10 06:03:56;;;;;;;;;;;;;;;30.20;44.38;100053.72;3531367;27;19978;-79
2021/07/10 06:05:40;;;;;;;;;;;;;;;30.32;44.27;100055.91;3530307;27;20026;-79
2021/07/10 06:07:20;;;;;;;;;;;;;;;30.40;44.37;100049.59;3534651;27;19927;-79
2021/07/10 06:09:01;;;;;;;;;;;;;;;30.49;43.93;100057.91;3538213;27;19923;-79
2021/07/10 06:10:41;;;;;;;;;;;;;;;30.57;44.09;100057.13;3528656;27;19931;-79
2021/07/10 06:12:22;;;;;;;;;;;;;;;30.66;44.04;100048.88;3534859;27;19923;-78
2021/07/10 06:14:08;;;;;;;;;;;;;;;30.74;43.63;100058.28;3534294;27;20335;-78
2021/07/10 06:15:48;;;;;;;;;;;;;;;30.81;43.82;100053.94;3532844;27;20321;-79
2021/07/10 06:17:29;;;;;;;;;;;;;;;30.89;43.75;100051.53;3535382;27;19956;-80
2021/07/10 06:19:09;;;;;;;;;;;;;;;30.96;43.87;100049.13;3512001;28;19985;-80
2021/07/10 06:20:50;;;;;;;;;;;;;;;31.03;43.65;100053.03;3527982;27;19923;-78
2021/07/10 06:22:30;;;;;;;;;;;;;;;31.10;43.50;100048.97;3528206;27;19959;-78
2021/07/10 06:24:11;;;;;;;;;;;;;;;31.14;43.46;100056.25;3529200;27;19923;-78
2021/07/10 06:25:51;;;;;;;;;;;;;;;31.20;43.37;100049.44;3532510;27;19923;-77
2021/07/10 06:27:32;;;;;;;;;;;;;;;31.26;43.12;100056.44;3536899;27;19935;-78
2021/07/10 06:29:12;;;;;;;;;;;;;;;31.35;43.10;100056.41;3527633;27;20275;-78
2021/07/10 06:30:53;;;;;;;;;;;;;;;31.45;42.88;100055.31;3532732;27;19923;-78
2021/07/10 06:32:33;;;;;;;;;;;;;;;31.56;42.99;100053.84;3533312;27;19915;-77
2021/07/10 06:34:14;;;;;;;;;;;;;;;31.67;42.70;100049.59;3533896;27;19924;-78
2021/07/10 06:35:56;;;;;;;;;;;;;;;31.78;42.49;100046.47;3533487;27;19938;-77
2021/07/10 06:37:37;;;;;;;;;;;;;;;31.92;42.34;100052.63;3529426;27;19955;-77
2021/07/10 06:39:19;;;;;;;;;;;;;;;32.07;42.10;100049.34;3517662;28;19923;-77
2021/07/10 06:41:00;;;;;;;;;;;;;;;32.25;41.92;100054.81;3511413;28;19975;-77
2021/07/10 06:42:41;;;;;;;;;;;;;;;32.41;41.61;100055.06;3527335;27;20424;-76
2021/07/10 06:44:22;;;;;;;;;;;;;;;32.53;41.51;100047.72;3515749;28;19924;-76
2021/07/10 06:46:02;;;;;;;;;;;;;;;32.67;41.08;100054.94;3512155;28;19959;-77
2021/07/10 06:47:43;;;;;;;;;;;;;;;32.79;40.90;100047.56;3518719;28;19924;-78
2021/07/10 06:49:24;;;;;;;;;;;;;;;32.90;40.87;100047.97;3530692;27;19920;-78
2021/07/10 06:51:04;;;;;;;;;;;;;;;33.00;40.73;100047.56;3529151;27;20432;-76
2021/07/10 06:52:45;;;;;;;;;;;;;;;33.08;40.24;100047.88;3530245;27;19923;-78
2021/07/10 06:54:26;;;;;;;;;;;;;;;33.18;40.43;100053.00;3533594;27;19962;-78
2021/07/10 06:56:07;;;;;;;;;;;;;;;33.28;40.15;100046.22;3533784;27;20004;-79
2021/07/10 06:57:48;;;;;;;;;;;;;;;33.40;39.91;100051.81;3531834;27;19923;-77
2021/07/10 06:59:28;;;;;;;;;;;;;;;33.52;39.95;100049.09;3527282;27;19928;-78
2021/07/10 07:01:09;;;;;;;;;;;;;;;33.62;39.95;100050.66;3533316;27;20412;-80
2021/07/10 07:02:49;;;;;;;;;;;;;;;33.71;39.49;100043.06;3532801;27;19924;-78
2021/07/10 07:04:30;;;;;;;;;;;;;;;33.80;39.52;100041.03;3531827;27;19974;-76
2021/07/10 07:06:11;;;;;;;;;;;;;;;33.87;39.40;100046.81;3515648;28;19947;-77
2021/07/10 07:07:51;;;;;;;;;;;;;;;33.96;38.85;100046.69;3529368;27;20191;-76
2021/07/10 07:09:32;;;;;;;;;;;;;;;34.03;38.67;100046.94;3532824;27;19928;-77
2021/07/10 07:11:12;;;;;;;;;;;;;;;34.15;39.15;100045.38;3533566;27;19923;-77
2021/07/10 07:12:53;;;;;;;;;;;;;;;34.25;38.95;100044.91;3532620;27;19937;-76
2021/07/10 07:14:33;;;;;;;;;;;;;;;34.34;38.36;100042.06;3527314;27;19923;-79
2021/07/10 07:16:14;;;;;;;;;;;;;;;34.43;38.65;100045.50;3528668;27;19967;-78
2021/07/10 07:17:55;;;;;;;;;;;;;;;34.49;37.99;100044.09;3532149;27;19923;-78
2021/07/10 07:19:35;;;;;;;;;;;;;;;34.56;37.75;100052.63;3528802;27;20374;-77
2021/07/10 07:21:18;;;;;;;;;;;;;;;34.62;37.98;100047.69;3530842;27;19924;-76
2021/07/10 07:22:58;;;;;;;;;;;;;;;34.69;37.85;100053.47;3531267;27;20395;-76
2021/07/10 07:24:39;;;;;;;;;;;;;;;34.76;37.76;100052.88;3530415;27;20347;-77
2021/07/10 07:26:22;;;;;;;;;;;;;;;34.85;37.30;100057.16;3531504;27;19938;-76
2021/07/10 07:28:03;;;;;;;;;;;;;;;34.95;37.44;100051.09;3531376;27;20538;-78
2021/07/10 07:29:43;;;;;;;;;;;;;;;35.05;36.92;100044.25;3515414;28;20389;-77
2021/07/10 07:31:24;;;;;;;;;;;;;;;35.21;36.87;100046.31;3524493;27;19946;-77
2021/07/10 07:33:04;;;;;;;;;;;;;;;35.35;36.68;100053.09;3532543;27;19972;-77
2021/07/10 07:34:48;;;;;;;;;;;;;;;35.49;36.32;100041.56;3515888;28;19931;-75
2021/07/10 07:36:28;;;;;;;;;;;;;;;35.62;36.16;100045.13;3514438;28;19940;-78
2021/07/10 07:38:12;;;;;;;;;;;;;;;35.72;35.83;100044.59;3531278;27;20020;-73
2021/07/10 07:39:54;;;;;;;;;;;;;;;35.83;35.72;100039.34;3523616;27;19949;-75
2021/07/10 07:41:36;;;;;;;;;;;;;;;35.93;35.66;100044.34;3527788;27;20014;-75
2021/07/10 07:43:18;;;;;;;;;;;;;;;36.02;35.48;100046.97;3535928;27;19934;-75
2021/07/10 07:44:58;;;;;;;;;;;;;;;36.08;35.70;100047.53;3527102;27;19924;-76
2021/07/10 07:46:39;;;;;;;;;;;;;;;36.14;35.12;100043.31;3528663;27;19930;-75
2021/07/10 07:48:19;;;;;;;;;;;;;;;36.24;35.38;100049.13;3533105;27;19931;-75
2021/07/10 07:50:00;;;;;;;;;;;;;;;36.34;35.33;100052.53;3524105;27;20305;-75
2021/07/10 07:51:41;;;;;;;;;;;;;;;36.45;35.03;100048.84;3527527;27;20014;-77
2021/07/10 07:53:22;;;;;;;;;;;;;;;36.58;34.42;100049.56;3481561;28;19962;-76
2021/07/10 07:55:04;;;;;;;;;;;;;;;36.70;34.37;100039.50;3515093;27;20020;-76
2021/07/10 07:56:44;;;;;;;;;;;;;;;36.81;34.73;100041.34;3523655;27;19963;-74
2021/07/10 07:58:26;;;;;;;;;;;;;;;36.84;33.54;100043.41;3523626;27;19924;-75
2021/07/10 08:00:08;;;;;;;;;;;;;;;36.75;34.02;100040.03;3524384;27;19927;-75
2021/07/10 08:01:51;;;;;;;;;;;;;;;36.62;34.53;100039.34;3523958;28;19927;-76
2021/07/10 08:03:32;;;;;;;;;;;;;;;36.46;34.34;100033.00;3534835;27;20396;-77
2021/07/10 08:05:13;;;;;;;;;;;;;;;36.36;34.02;100037.13;3519898;28;19927;-76
2021/07/10 08:06:54;;;;;;;;;;;;;;;36.30;34.27;100024.69;3510820;28;19931;-76
2021/07/10 08:08:39;;;;;;;;;;;;;;;36.25;34.36;100027.75;3513031;28;19959;-75
2021/07/10 08:10:21;;;;;;;;;;;;;;;36.26;34.15;100023.78;3529769;27;20049;-76
2021/07/10 08:12:03;;;;;;;;;;;;;;;36.30;34.28;100019.13;3525988;27;20395;-77
2021/07/10 08:13:44;;;;;;;;;;;;;;;36.35;34.00;100018.03;3524027;28;20375;-76
2021/07/10 08:15:25;;;;;;;;;;;;;;;36.45;33.83;100015.53;3523963;27;19924;-78
2021/07/10 08:17:05;;;;;;;;;;;;;;;36.63;33.54;100015.13;3523715;27;19924;-78
2021/07/10 08:18:47;;;;;;;;;;;;;;;36.81;33.45;100009.97;3523717;27;20010;-76
2021/07/10 08:20:28;;;;;;;;;;;;;;;37.00;33.24;100004.44;3508869;28;20310;-73
2021/07/10 08:22:08;;;;;;;;;;;;;;;37.21;32.95;100014.41;3520152;28;19923;-72
2021/07/10 08:23:50;;;;;;;;;;;;;;;37.40;33.20;100010.81;3528458;27;19927;-76
2021/07/10 08:25:31;;;;;;;;;;;;;;;37.53;32.79;100012.25;3533839;27;19927;-77
2021/07/10 08:27:15;;;;;;;;;;;;;;;37.62;32.61;100015.63;3526901;27;19924;-77
2021/07/10 08:28:57;;;;;;;;;;;;;;;37.54;32.40;100008.34;3524292;27;19927;-76
2021/07/10 08:30:38;;;;;;;;;;;;;;;37.40;32.22;100014.38;3522979;28;20393;-78
2021/07/10 08:32:18;;;;;;;;;;;;;;;37.24;32.96;100017.25;3526027;28;19931;-77
2021/07/10 08:33:59;;;;;;;;;;;;;;;37.16;33.08;100009.94;3532905;28;19938;-76
2021/07/10 08:35:39;;;;;;;;;;;;;;;37.22;32.55;100019.59;3529259;28;20341;-75
2021/07/10 08:37:20;;;;;;;;;;;;;;;37.34;32.53;100021.44;3526585;28;19928;-76